Aviation Digital Data Service (ADDS)

Output produced by METARs form (1731 UTC 16 June 2019)
found at http://www.aviationweather.gov/metar/data/
 
Forecast for: PKWA (KWAJALEIN/BUCHOL, MH, US)
Text: PKWA 161123Z 1612/1712 07014KT P6SM VCSH FEW020 SCT040 BKN150
Forecast period: 1200 UTC 16 June 2019 to 1200 UTC 17 June 2019
Forecast type: FROM: standard forecast or significant change
Winds: from the ENE (70 degrees) at 16 MPH (14 knots; 7.2 m/s)
Visibility: 6 or more miles 10+ km)
Ceiling: 15000 feet AGL
Clouds: few clouds at 2000 feet AGL
scattered clouds at 4000 feet AGL
broken clouds at 15000 feet AGL
Weather: VCSH  (showers in vicinity)
Text: TEMPO 1612/1616 -SHRA SCT020 BKN040 BKN150
Forecast period: 1200 to 1600 UTC 16 June 2019
Forecast type: TEMPORARY: The following changes expected for less than half the time period
Visibility: missing
Ceiling: 4000 feet AGL
Clouds: scattered clouds at 2000 feet AGL
broken clouds at 4000 feet AGL
broken clouds at 15000 feet AGL
Weather: -SHRA  (light rain showers)